sensor_id;sensor_type;location;lat;lon;timestamp;P1;durP1;ratioP1;P2;durP2;ratioP2
3633;SDS011;1833;42.718;23.270;2022-09-09T00:01:50;29.67;;;27.27;;
3633;SDS011;1833;42.718;23.270;2022-09-09T00:04:21;29.20;;;26.37;;
3633;SDS011;1833;42.718;23.270;2022-09-09T00:06:53;33.67;;;28.30;;
3633;SDS011;1833;42.718;23.270;2022-09-09T00:09:23;29.63;;;27.13;;
3633;SDS011;1833;42.718;23.270;2022-09-09T00:11:52;30.10;;;27.63;;
3633;SDS011;1833;42.718;23.270;2022-09-09T00:14:23;29.83;;;27.27;;
3633;SDS011;1833;42.718;23.270;2022-09-09T00:16:54;31.17;;;28.67;;
3633;SDS011;1833;42.718;23.270;2022-09-09T00:19:23;29.93;;;27.47;;
3633;SDS011;1833;42.718;23.270;2022-09-09T00:21:55;29.93;;;27.23;;
3633;SDS011;1833;42.718;23.270;2022-09-09T00:24:28;29.93;;;27.53;;
3633;SDS011;1833;42.718;23.270;2022-09-09T00:26:57;28.93;;;26.63;;
3633;SDS011;1833;42.718;23.270;2022-09-09T00:29:29;31.07;;;28.17;;
3633;SDS011;1833;42.718;23.270;2022-09-09T00:32:04;29.87;;;27.23;;
3633;SDS011;1833;42.718;23.270;2022-09-09T00:34:33;29.50;;;26.90;;
3633;SDS011;1833;42.718;23.270;2022-09-09T00:37:02;28.83;;;26.23;;
3633;SDS011;1833;42.718;23.270;2022-09-09T00:39:31;29.27;;;26.77;;
3633;SDS011;1833;42.718;23.270;2022-09-09T00:42:03;28.93;;;26.53;;
3633;SDS011;1833;42.718;23.270;2022-09-09T00:44:36;29.70;;;26.87;;
3633;SDS011;1833;42.718;23.270;2022-09-09T00:47:09;29.97;;;27.13;;
3633;SDS011;1833;42.718;23.270;2022-09-09T00:49:42;29.87;;;27.37;;
3633;SDS011;1833;42.718;23.270;2022-09-09T00:52:19;30.03;;;27.10;;
3633;SDS011;1833;42.718;23.270;2022-09-09T00:54:50;28.73;;;26.17;;
3633;SDS011;1833;42.718;23.270;2022-09-09T00:57:22;28.50;;;26.20;;
3633;SDS011;1833;42.718;23.270;2022-09-09T00:59:51;28.70;;;26.37;;
3633;SDS011;1833;42.718;23.270;2022-09-09T01:02:25;29.50;;;27.03;;
3633;SDS011;1833;42.718;23.270;2022-09-09T01:04:54;28.63;;;26.33;;
3633;SDS011;1833;42.718;23.270;2022-09-09T01:07:24;29.13;;;26.80;;
3633;SDS011;1833;42.718;23.270;2022-09-09T01:09:52;31.07;;;28.13;;
3633;SDS011;1833;42.718;23.270;2022-09-09T01:12:25;30.70;;;28.10;;
3633;SDS011;1833;42.718;23.270;2022-09-09T01:14:54;28.90;;;26.40;;
3633;SDS011;1833;42.718;23.270;2022-09-09T01:17:25;28.50;;;26.10;;
3633;SDS011;1833;42.718;23.270;2022-09-09T01:19:57;30.33;;;27.40;;
3633;SDS011;1833;42.718;23.270;2022-09-09T01:22:29;29.57;;;26.77;;
3633;SDS011;1833;42.718;23.270;2022-09-09T01:25:13;28.20;;;25.90;;
3633;SDS011;1833;42.718;23.270;2022-09-09T01:27:42;29.40;;;27.10;;
3633;SDS011;1833;42.718;23.270;2022-09-09T01:30:10;28.50;;;26.00;;
3633;SDS011;1833;42.718;23.270;2022-09-09T01:32:39;30.03;;;27.30;;
3633;SDS011;1833;42.718;23.270;2022-09-09T01:35:08;28.77;;;26.27;;
3633;SDS011;1833;42.718;23.270;2022-09-09T01:37:36;27.97;;;25.77;;
3633;SDS011;1833;42.718;23.270;2022-09-09T01:40:04;29.90;;;27.20;;
3633;SDS011;1833;42.718;23.270;2022-09-09T01:42:31;29.63;;;27.00;;
3633;SDS011;1833;42.718;23.270;2022-09-09T01:45:00;29.20;;;26.70;;
3633;SDS011;1833;42.718;23.270;2022-09-09T01:47:27;29.93;;;27.33;;
3633;SDS011;1833;42.718;23.270;2022-09-09T01:49:55;29.27;;;26.67;;
3633;SDS011;1833;42.718;23.270;2022-09-09T01:52:22;29.63;;;26.93;;
3633;SDS011;1833;42.718;23.270;2022-09-09T01:54:49;29.13;;;26.73;;
3633;SDS011;1833;42.718;23.270;2022-09-09T01:57:18;29.90;;;27.27;;
3633;SDS011;1833;42.718;23.270;2022-09-09T01:59:53;30.37;;;27.30;;
3633;SDS011;1833;42.718;23.270;2022-09-09T02:02:24;31.30;;;28.50;;
3633;SDS011;1833;42.718;23.270;2022-09-09T02:04:54;30.93;;;28.00;;
3633;SDS011;1833;42.718;23.270;2022-09-09T02:07:27;29.23;;;26.77;;
3633;SDS011;1833;42.718;23.270;2022-09-09T02:09:57;31.50;;;28.40;;
3633;SDS011;1833;42.718;23.270;2022-09-09T02:12:25;30.00;;;27.10;;
3633;SDS011;1833;42.718;23.270;2022-09-09T02:14:55;29.27;;;26.73;;
3633;SDS011;1833;42.718;23.270;2022-09-09T02:17:26;30.40;;;27.50;;
3633;SDS011;1833;42.718;23.270;2022-09-09T02:19:54;29.00;;;26.37;;
3633;SDS011;1833;42.718;23.270;2022-09-09T02:22:24;29.10;;;26.37;;
3633;SDS011;1833;42.718;23.270;2022-09-09T02:24:54;27.97;;;25.40;;
3633;SDS011;1833;42.718;23.270;2022-09-09T02:27:24;28.00;;;25.80;;
3633;SDS011;1833;42.718;23.270;2022-09-09T02:29:51;29.30;;;26.80;;
3633;SDS011;1833;42.718;23.270;2022-09-09T02:32:20;28.57;;;25.77;;
3633;SDS011;1833;42.718;23.270;2022-09-09T02:34:51;30.60;;;27.90;;
3633;SDS011;1833;42.718;23.270;2022-09-09T02:37:21;29.70;;;26.80;;
3633;SDS011;1833;42.718;23.270;2022-09-09T02:39:53;29.30;;;26.40;;
3633;SDS011;1833;42.718;23.270;2022-09-09T02:42:20;28.63;;;26.13;;
3633;SDS011;1833;42.718;23.270;2022-09-09T02:44:49;27.27;;;24.97;;
3633;SDS011;1833;42.718;23.270;2022-09-09T02:47:19;30.13;;;27.40;;
3633;SDS011;1833;42.718;23.270;2022-09-09T02:49:54;28.80;;;26.37;;
3633;SDS011;1833;42.718;23.270;2022-09-09T02:52:26;26.90;;;24.70;;
3633;SDS011;1833;42.718;23.270;2022-09-09T02:54:55;28.27;;;25.97;;
3633;SDS011;1833;42.718;23.270;2022-09-09T02:57:25;28.00;;;25.63;;
3633;SDS011;1833;42.718;23.270;2022-09-09T02:59:56;28.70;;;26.30;;
3633;SDS011;1833;42.718;23.270;2022-09-09T03:02:23;27.73;;;25.53;;
3633;SDS011;1833;42.718;23.270;2022-09-09T03:04:52;28.33;;;26.10;;
3633;SDS011;1833;42.718;23.270;2022-09-09T03:07:21;29.50;;;27.00;;
3633;SDS011;1833;42.718;23.270;2022-09-09T03:09:48;30.83;;;28.07;;
3633;SDS011;1833;42.718;23.270;2022-09-09T03:12:15;30.80;;;28.00;;
3633;SDS011;1833;42.718;23.270;2022-09-09T03:14:43;31.17;;;28.10;;
3633;SDS011;1833;42.718;23.270;2022-09-09T03:17:11;30.03;;;27.20;;
3633;SDS011;1833;42.718;23.270;2022-09-09T03:19:38;28.70;;;25.83;;
3633;SDS011;1833;42.718;23.270;2022-09-09T03:22:07;29.70;;;26.70;;
3633;SDS011;1833;42.718;23.270;2022-09-09T03:24:36;30.73;;;27.87;;
3633;SDS011;1833;42.718;23.270;2022-09-09T03:27:03;31.53;;;28.43;;
3633;SDS011;1833;42.718;23.270;2022-09-09T03:29:31;30.67;;;27.90;;
3633;SDS011;1833;42.718;23.270;2022-09-09T03:31:59;29.00;;;26.57;;
3633;SDS011;1833;42.718;23.270;2022-09-09T03:34:26;31.90;;;28.90;;
3633;SDS011;1833;42.718;23.270;2022-09-09T03:36:53;32.53;;;28.03;;
3633;SDS011;1833;42.718;23.270;2022-09-09T03:39:22;30.30;;;27.37;;
3633;SDS011;1833;42.718;23.270;2022-09-09T03:41:49;30.90;;;28.20;;
3633;SDS011;1833;42.718;23.270;2022-09-09T03:44:16;31.43;;;28.57;;
3633;SDS011;1833;42.718;23.270;2022-09-09T03:46:44;29.87;;;27.17;;
3633;SDS011;1833;42.718;23.270;2022-09-09T03:49:11;29.37;;;27.07;;
3633;SDS011;1833;42.718;23.270;2022-09-09T03:51:38;30.17;;;27.53;;
3633;SDS011;1833;42.718;23.270;2022-09-09T03:54:06;29.43;;;27.00;;
3633;SDS011;1833;42.718;23.270;2022-09-09T03:56:36;30.53;;;27.57;;
3633;SDS011;1833;42.718;23.270;2022-09-09T03:59:04;32.10;;;29.03;;
3633;SDS011;1833;42.718;23.270;2022-09-09T04:01:32;30.37;;;27.77;;
3633;SDS011;1833;42.718;23.270;2022-09-09T04:03:59;30.07;;;27.07;;
3633;SDS011;1833;42.718;23.270;2022-09-09T04:06:27;29.63;;;27.23;;
3633;SDS011;1833;42.718;23.270;2022-09-09T04:08:55;29.73;;;27.23;;
3633;SDS011;1833;42.718;23.270;2022-09-09T04:11:22;31.73;;;28.83;;
3633;SDS011;1833;42.718;23.270;2022-09-09T04:13:51;31.73;;;28.83;;
3633;SDS011;1833;42.718;23.270;2022-09-09T04:16:18;28.77;;;26.07;;
3633;SDS011;1833;42.718;23.270;2022-09-09T04:18:45;29.43;;;26.60;;
3633;SDS011;1833;42.718;23.270;2022-09-09T04:21:13;29.80;;;26.90;;
3633;SDS011;1833;42.718;23.270;2022-09-09T04:23:42;27.93;;;25.30;;
3633;SDS011;1833;42.718;23.270;2022-09-09T04:26:09;28.60;;;25.90;;
3633;SDS011;1833;42.718;23.270;2022-09-09T04:28:37;28.60;;;26.00;;
3633;SDS011;1833;42.718;23.270;2022-09-09T04:31:06;27.90;;;25.17;;
3633;SDS011;1833;42.718;23.270;2022-09-09T04:33:34;28.17;;;25.80;;
3633;SDS011;1833;42.718;23.270;2022-09-09T04:36:02;29.00;;;26.20;;
3633;SDS011;1833;42.718;23.270;2022-09-09T04:38:29;32.23;;;29.00;;
3633;SDS011;1833;42.718;23.270;2022-09-09T04:40:56;30.03;;;26.90;;
3633;SDS011;1833;42.718;23.270;2022-09-09T04:43:23;27.70;;;25.30;;
3633;SDS011;1833;42.718;23.270;2022-09-09T04:45:55;27.30;;;25.00;;
3633;SDS011;1833;42.718;23.270;2022-09-09T04:48:24;26.97;;;24.57;;
3633;SDS011;1833;42.718;23.270;2022-09-09T04:50:55;29.40;;;26.70;;
3633;SDS011;1833;42.718;23.270;2022-09-09T04:53:23;40.53;;;24.63;;
3633;SDS011;1833;42.718;23.270;2022-09-09T04:55:53;27.90;;;25.77;;
3633;SDS011;1833;42.718;23.270;2022-09-09T04:58:21;27.97;;;25.33;;
3633;SDS011;1833;42.718;23.270;2022-09-09T05:00:52;27.40;;;25.00;;
3633;SDS011;1833;42.718;23.270;2022-09-09T05:03:21;28.07;;;25.50;;
3633;SDS011;1833;42.718;23.270;2022-09-09T05:05:50;27.87;;;25.27;;
3633;SDS011;1833;42.718;23.270;2022-09-09T05:08:18;26.97;;;24.50;;
3633;SDS011;1833;42.718;23.270;2022-09-09T05:10:45;28.77;;;26.13;;
3633;SDS011;1833;42.718;23.270;2022-09-09T05:13:13;28.73;;;26.23;;
3633;SDS011;1833;42.718;23.270;2022-09-09T05:15:40;27.10;;;24.90;;
3633;SDS011;1833;42.718;23.270;2022-09-09T05:18:08;28.07;;;25.80;;
3633;SDS011;1833;42.718;23.270;2022-09-09T05:20:35;27.60;;;25.33;;
3633;SDS011;1833;42.718;23.270;2022-09-09T05:23:04;27.10;;;25.17;;
3633;SDS011;1833;42.718;23.270;2022-09-09T05:25:31;28.40;;;25.80;;
3633;SDS011;1833;42.718;23.270;2022-09-09T05:27:58;27.50;;;25.07;;
3633;SDS011;1833;42.718;23.270;2022-09-09T05:30:26;28.50;;;26.17;;
3633;SDS011;1833;42.718;23.270;2022-09-09T05:32:55;28.47;;;26.17;;
3633;SDS011;1833;42.718;23.270;2022-09-09T05:35:22;29.50;;;27.10;;
3633;SDS011;1833;42.718;23.270;2022-09-09T05:37:49;29.27;;;26.80;;
3633;SDS011;1833;42.718;23.270;2022-09-09T05:40:18;28.50;;;25.90;;
3633;SDS011;1833;42.718;23.270;2022-09-09T05:42:46;33.73;;;30.40;;
3633;SDS011;1833;42.718;23.270;2022-09-09T05:45:13;29.57;;;27.17;;
3633;SDS011;1833;42.718;23.270;2022-09-09T05:47:41;38.97;;;35.03;;
3633;SDS011;1833;42.718;23.270;2022-09-09T05:50:08;31.37;;;28.20;;
3633;SDS011;1833;42.718;23.270;2022-09-09T05:52:35;30.83;;;28.23;;
3633;SDS011;1833;42.718;23.270;2022-09-09T05:55:03;54.73;;;45.57;;
3633;SDS011;1833;42.718;23.270;2022-09-09T05:57:32;39.63;;;35.43;;
3633;SDS011;1833;42.718;23.270;2022-09-09T05:59:59;33.28;;;30.25;;
3633;SDS011;1833;42.718;23.270;2022-09-09T06:02:26;33.27;;;30.40;;
3633;SDS011;1833;42.718;23.270;2022-09-09T06:04:53;50.63;;;34.85;;
3633;SDS011;1833;42.718;23.270;2022-09-09T06:07:21;35.22;;;31.70;;
3633;SDS011;1833;42.718;23.270;2022-09-09T06:09:48;30.15;;;27.67;;
3633;SDS011;1833;42.718;23.270;2022-09-09T06:12:16;28.67;;;26.50;;
3633;SDS011;1833;42.718;23.270;2022-09-09T06:14:45;30.52;;;28.15;;
3633;SDS011;1833;42.718;23.270;2022-09-09T06:17:12;30.60;;;28.20;;
3633;SDS011;1833;42.718;23.270;2022-09-09T06:19:39;30.07;;;27.27;;
3633;SDS011;1833;42.718;23.270;2022-09-09T06:22:07;28.70;;;26.40;;
3633;SDS011;1833;42.718;23.270;2022-09-09T06:24:37;29.43;;;27.00;;
3633;SDS011;1833;42.718;23.270;2022-09-09T06:27:04;28.97;;;26.57;;
3633;SDS011;1833;42.718;23.270;2022-09-09T06:29:32;28.37;;;25.77;;
3633;SDS011;1833;42.718;23.270;2022-09-09T06:32:01;29.40;;;27.00;;
3633;SDS011;1833;42.718;23.270;2022-09-09T06:34:28;30.17;;;27.50;;
3633;SDS011;1833;42.718;23.270;2022-09-09T06:36:56;30.23;;;27.40;;
3633;SDS011;1833;42.718;23.270;2022-09-09T06:39:23;30.67;;;28.00;;
3633;SDS011;1833;42.718;23.270;2022-09-09T06:41:51;33.23;;;30.13;;
3633;SDS011;1833;42.718;23.270;2022-09-09T06:44:18;33.33;;;30.37;;
3633;SDS011;1833;42.718;23.270;2022-09-09T06:46:46;32.40;;;29.27;;
3633;SDS011;1833;42.718;23.270;2022-09-09T06:49:14;32.20;;;28.87;;
3633;SDS011;1833;42.718;23.270;2022-09-09T06:51:42;32.93;;;29.60;;
3633;SDS011;1833;42.718;23.270;2022-09-09T06:54:09;31.70;;;28.87;;
3633;SDS011;1833;42.718;23.270;2022-09-09T06:56:37;32.30;;;29.37;;
3633;SDS011;1833;42.718;23.270;2022-09-09T06:59:06;29.37;;;27.07;;
3633;SDS011;1833;42.718;23.270;2022-09-09T07:01:34;29.80;;;27.50;;
3633;SDS011;1833;42.718;23.270;2022-09-09T07:04:02;28.20;;;26.03;;
3633;SDS011;1833;42.718;23.270;2022-09-09T07:06:34;30.30;;;27.90;;
3633;SDS011;1833;42.718;23.270;2022-09-09T07:09:03;28.20;;;26.10;;
3633;SDS011;1833;42.718;23.270;2022-09-09T07:11:30;30.27;;;27.57;;
3633;SDS011;1833;42.718;23.270;2022-09-09T07:13:59;28.67;;;26.27;;
3633;SDS011;1833;42.718;23.270;2022-09-09T07:16:26;27.77;;;25.37;;
3633;SDS011;1833;42.718;23.270;2022-09-09T07:18:54;28.27;;;25.83;;
3633;SDS011;1833;42.718;23.270;2022-09-09T07:21:23;28.70;;;26.30;;
3633;SDS011;1833;42.718;23.270;2022-09-09T07:23:52;29.33;;;26.60;;
3633;SDS011;1833;42.718;23.270;2022-09-09T07:26:20;28.17;;;25.87;;
3633;SDS011;1833;42.718;23.270;2022-09-09T07:28:48;27.80;;;25.50;;
3633;SDS011;1833;42.718;23.270;2022-09-09T07:31:16;28.30;;;26.03;;
3633;SDS011;1833;42.718;23.270;2022-09-09T07:33:43;30.53;;;27.60;;
3633;SDS011;1833;42.718;23.270;2022-09-09T07:36:13;28.77;;;26.47;;
3633;SDS011;1833;42.718;23.270;2022-09-09T07:38:41;28.63;;;26.33;;
3633;SDS011;1833;42.718;23.270;2022-09-09T07:41:13;29.17;;;26.67;;
3633;SDS011;1833;42.718;23.270;2022-09-09T07:43:42;29.27;;;26.57;;
3633;SDS011;1833;42.718;23.270;2022-09-09T07:46:10;27.77;;;25.27;;
3633;SDS011;1833;42.718;23.270;2022-09-09T07:48:38;27.67;;;25.37;;
3633;SDS011;1833;42.718;23.270;2022-09-09T07:51:07;28.30;;;26.07;;
3633;SDS011;1833;42.718;23.270;2022-09-09T07:53:35;28.73;;;25.90;;
3633;SDS011;1833;42.718;23.270;2022-09-09T07:56:04;28.50;;;25.93;;
3633;SDS011;1833;42.718;23.270;2022-09-09T07:58:32;28.63;;;25.60;;
3633;SDS011;1833;42.718;23.270;2022-09-09T08:01:00;25.27;;;22.87;;
3633;SDS011;1833;42.718;23.270;2022-09-09T08:03:27;25.80;;;23.70;;
3633;SDS011;1833;42.718;23.270;2022-09-09T08:05:59;26.00;;;23.90;;
3633;SDS011;1833;42.718;23.270;2022-09-09T08:08:27;25.02;;;23.13;;
3633;SDS011;1833;42.718;23.270;2022-09-09T08:11:00;25.57;;;23.47;;
3633;SDS011;1833;42.718;23.270;2022-09-09T08:13:28;25.70;;;23.47;;
3633;SDS011;1833;42.718;23.270;2022-09-09T08:16:04;25.17;;;23.07;;
3633;SDS011;1833;42.718;23.270;2022-09-09T08:18:31;26.10;;;23.90;;
3633;SDS011;1833;42.718;23.270;2022-09-09T08:21:04;24.92;;;23.13;;
3633;SDS011;1833;42.718;23.270;2022-09-09T08:23:33;25.67;;;23.50;;
3633;SDS011;1833;42.718;23.270;2022-09-09T08:26:04;25.33;;;23.43;;
3633;SDS011;1833;42.718;23.270;2022-09-09T08:28:32;26.20;;;23.95;;
3633;SDS011;1833;42.718;23.270;2022-09-09T08:31:06;27.70;;;25.30;;
3633;SDS011;1833;42.718;23.270;2022-09-09T08:33:33;25.20;;;23.30;;
3633;SDS011;1833;42.718;23.270;2022-09-09T08:36:02;26.70;;;24.60;;
3633;SDS011;1833;42.718;23.270;2022-09-09T08:38:29;25.98;;;23.90;;
3633;SDS011;1833;42.718;23.270;2022-09-09T08:40:58;27.08;;;24.88;;
3633;SDS011;1833;42.718;23.270;2022-09-09T08:43:26;26.35;;;24.20;;
3633;SDS011;1833;42.718;23.270;2022-09-09T08:45:55;25.88;;;23.73;;
3633;SDS011;1833;42.718;23.270;2022-09-09T08:48:33;25.50;;;23.30;;
3633;SDS011;1833;42.718;23.270;2022-09-09T08:51:03;27.92;;;25.25;;
3633;SDS011;1833;42.718;23.270;2022-09-09T08:53:35;25.85;;;23.55;;
3633;SDS011;1833;42.718;23.270;2022-09-09T08:56:08;26.95;;;24.35;;
3633;SDS011;1833;42.718;23.270;2022-09-09T08:58:40;26.30;;;24.15;;
3633;SDS011;1833;42.718;23.270;2022-09-09T09:01:18;25.08;;;23.08;;
3633;SDS011;1833;42.718;23.270;2022-09-09T09:03:52;24.95;;;23.00;;
3633;SDS011;1833;42.718;23.270;2022-09-09T09:06:24;25.83;;;23.83;;
3633;SDS011;1833;42.718;23.270;2022-09-09T09:08:55;26.35;;;24.15;;
3633;SDS011;1833;42.718;23.270;2022-09-09T09:11:26;25.92;;;23.30;;
3633;SDS011;1833;42.718;23.270;2022-09-09T09:13:54;24.98;;;23.08;;
3633;SDS011;1833;42.718;23.270;2022-09-09T09:16:23;26.15;;;24.05;;
3633;SDS011;1833;42.718;23.270;2022-09-09T09:18:53;26.20;;;23.98;;
3633;SDS011;1833;42.718;23.270;2022-09-09T09:21:23;25.38;;;23.45;;
3633;SDS011;1833;42.718;23.270;2022-09-09T09:23:54;26.02;;;23.92;;
3633;SDS011;1833;42.718;23.270;2022-09-09T09:26:23;25.38;;;23.10;;
3633;SDS011;1833;42.718;23.270;2022-09-09T09:28:51;26.20;;;24.05;;
3633;SDS011;1833;42.718;23.270;2022-09-09T09:31:19;29.38;;;26.67;;
3633;SDS011;1833;42.718;23.270;2022-09-09T09:33:48;26.17;;;23.52;;
3633;SDS011;1833;42.718;23.270;2022-09-09T09:36:19;26.35;;;24.15;;
3633;SDS011;1833;42.718;23.270;2022-09-09T09:38:53;26.85;;;24.13;;
3633;SDS011;1833;42.718;23.270;2022-09-09T09:41:31;25.15;;;23.15;;
3633;SDS011;1833;42.718;23.270;2022-09-09T09:43:59;25.75;;;23.38;;
3633;SDS011;1833;42.718;23.270;2022-09-09T09:46:27;30.92;;;25.58;;
3633;SDS011;1833;42.718;23.270;2022-09-09T09:48:58;27.73;;;24.90;;
3633;SDS011;1833;42.718;23.270;2022-09-09T09:51:27;26.70;;;24.38;;
3633;SDS011;1833;42.718;23.270;2022-09-09T09:54:08;30.50;;;24.77;;
3633;SDS011;1833;42.718;23.270;2022-09-09T09:56:36;27.73;;;25.53;;
3633;SDS011;1833;42.718;23.270;2022-09-09T09:59:03;27.77;;;25.23;;
3633;SDS011;1833;42.718;23.270;2022-09-09T10:01:31;27.48;;;25.27;;
3633;SDS011;1833;42.718;23.270;2022-09-09T10:03:59;27.23;;;24.83;;
3633;SDS011;1833;42.718;23.270;2022-09-09T10:06:32;26.73;;;24.67;;
3633;SDS011;1833;42.718;23.270;2022-09-09T10:09:00;26.77;;;24.67;;
3633;SDS011;1833;42.718;23.270;2022-09-09T10:11:35;27.20;;;25.20;;
3633;SDS011;1833;42.718;23.270;2022-09-09T10:14:07;27.10;;;24.80;;
3633;SDS011;1833;42.718;23.270;2022-09-09T10:16:43;27.00;;;24.77;;
3633;SDS011;1833;42.718;23.270;2022-09-09T10:19:13;25.80;;;23.70;;
3633;SDS011;1833;42.718;23.270;2022-09-09T10:21:51;26.60;;;24.63;;
3633;SDS011;1833;42.718;23.270;2022-09-09T10:24:24;28.53;;;25.70;;
3633;SDS011;1833;42.718;23.270;2022-09-09T10:26:55;28.40;;;25.80;;
3633;SDS011;1833;42.718;23.270;2022-09-09T10:29:29;29.47;;;26.50;;
3633;SDS011;1833;42.718;23.270;2022-09-09T10:32:01;27.90;;;25.30;;
3633;SDS011;1833;42.718;23.270;2022-09-09T10:34:36;27.53;;;25.23;;
3633;SDS011;1833;42.718;23.270;2022-09-09T10:37:22;27.47;;;25.20;;
3633;SDS011;1833;42.718;23.270;2022-09-09T10:39:51;29.80;;;27.07;;
3633;SDS011;1833;42.718;23.270;2022-09-09T10:42:23;29.93;;;27.23;;
3633;SDS011;1833;42.718;23.270;2022-09-09T10:44:56;31.33;;;27.47;;
3633;SDS011;1833;42.718;23.270;2022-09-09T10:47:43;27.90;;;25.30;;
3633;SDS011;1833;42.718;23.270;2022-09-09T10:50:26;31.43;;;28.03;;
3633;SDS011;1833;42.718;23.270;2022-09-09T10:52:59;29.30;;;26.53;;
3633;SDS011;1833;42.718;23.270;2022-09-09T10:55:33;28.80;;;26.10;;
3633;SDS011;1833;42.718;23.270;2022-09-09T10:58:02;28.00;;;25.60;;
3633;SDS011;1833;42.718;23.270;2022-09-09T11:00:35;26.57;;;24.37;;
3633;SDS011;1833;42.718;23.270;2022-09-09T11:03:05;27.27;;;24.60;;
3633;SDS011;1833;42.718;23.270;2022-09-09T11:05:35;27.50;;;24.83;;
3633;SDS011;1833;42.718;23.270;2022-09-09T11:08:09;26.00;;;23.90;;
3633;SDS011;1833;42.718;23.270;2022-09-09T11:10:38;25.60;;;23.60;;
3633;SDS011;1833;42.718;23.270;2022-09-09T11:13:09;27.30;;;24.97;;
3633;SDS011;1833;42.718;23.270;2022-09-09T11:15:39;26.27;;;24.20;;
3633;SDS011;1833;42.718;23.270;2022-09-09T11:18:09;27.70;;;25.30;;
3633;SDS011;1833;42.718;23.270;2022-09-09T11:20:38;27.30;;;25.10;;
3633;SDS011;1833;42.718;23.270;2022-09-09T11:23:09;26.67;;;24.30;;
3633;SDS011;1833;42.718;23.270;2022-09-09T11:25:39;28.13;;;25.70;;
3633;SDS011;1833;42.718;23.270;2022-09-09T11:28:15;26.52;;;23.92;;
3633;SDS011;1833;42.718;23.270;2022-09-09T11:30:48;29.40;;;23.00;;
3633;SDS011;1833;42.718;23.270;2022-09-09T11:33:23;26.15;;;23.60;;
3633;SDS011;1833;42.718;23.270;2022-09-09T11:35:58;25.92;;;23.73;;
3633;SDS011;1833;42.718;23.270;2022-09-09T11:38:31;25.65;;;23.65;;
3633;SDS011;1833;42.718;23.270;2022-09-09T11:41:03;26.35;;;24.35;;
3633;SDS011;1833;42.718;23.270;2022-09-09T11:43:32;26.60;;;24.50;;
3633;SDS011;1833;42.718;23.270;2022-09-09T11:46:01;26.53;;;24.13;;
3633;SDS011;1833;42.718;23.270;2022-09-09T11:48:31;26.83;;;24.60;;
3633;SDS011;1833;42.718;23.270;2022-09-09T11:51:00;27.40;;;24.95;;
3633;SDS011;1833;42.718;23.270;2022-09-09T11:53:28;27.17;;;24.98;;
3633;SDS011;1833;42.718;23.270;2022-09-09T11:56:12;26.65;;;24.35;;
3633;SDS011;1833;42.718;23.270;2022-09-09T11:58:41;29.13;;;26.10;;
3633;SDS011;1833;42.718;23.270;2022-09-09T12:03:59;25.90;;;23.65;;
3633;SDS011;1833;42.718;23.270;2022-09-09T12:06:28;27.08;;;24.65;;
3633;SDS011;1833;42.718;23.270;2022-09-09T12:08:58;26.95;;;24.85;;
3633;SDS011;1833;42.718;23.270;2022-09-09T12:11:34;26.27;;;24.27;;
3633;SDS011;1833;42.718;23.270;2022-09-09T12:14:02;25.40;;;23.60;;
3633;SDS011;1833;42.718;23.270;2022-09-09T12:16:31;26.63;;;24.42;;
3633;SDS011;1833;42.718;23.270;2022-09-09T12:19:03;25.45;;;23.58;;
3633;SDS011;1833;42.718;23.270;2022-09-09T12:21:33;27.23;;;24.98;;
3633;SDS011;1833;42.718;23.270;2022-09-09T12:24:04;27.08;;;24.80;;
3633;SDS011;1833;42.718;23.270;2022-09-09T12:26:36;27.45;;;24.83;;
3633;SDS011;1833;42.718;23.270;2022-09-09T12:29:06;28.58;;;25.83;;
3633;SDS011;1833;42.718;23.270;2022-09-09T12:31:40;28.98;;;24.92;;
3633;SDS011;1833;42.718;23.270;2022-09-09T12:34:10;27.35;;;24.83;;
3633;SDS011;1833;42.718;23.270;2022-09-09T12:36:38;27.45;;;25.00;;
3633;SDS011;1833;42.718;23.270;2022-09-09T12:39:10;27.58;;;25.15;;
3633;SDS011;1833;42.718;23.270;2022-09-09T12:41:50;26.75;;;24.55;;
3633;SDS011;1833;42.718;23.270;2022-09-09T12:44:18;26.55;;;24.10;;
3633;SDS011;1833;42.718;23.270;2022-09-09T12:46:45;26.13;;;23.40;;
3633;SDS011;1833;42.718;23.270;2022-09-09T12:49:23;25.30;;;23.27;;
3633;SDS011;1833;42.718;23.270;2022-09-09T12:51:52;26.75;;;23.92;;
3633;SDS011;1833;42.718;23.270;2022-09-09T12:54:19;26.70;;;24.20;;
3633;SDS011;1833;42.718;23.270;2022-09-09T12:56:48;24.77;;;22.90;;
3633;SDS011;1833;42.718;23.270;2022-09-09T12:59:21;26.07;;;23.43;;
3633;SDS011;1833;42.718;23.270;2022-09-09T13:01:55;26.27;;;23.97;;
3633;SDS011;1833;42.718;23.270;2022-09-09T13:04:22;30.80;;;24.37;;
3633;SDS011;1833;42.718;23.270;2022-09-09T13:06:49;25.73;;;23.80;;
3633;SDS011;1833;42.718;23.270;2022-09-09T13:09:17;25.73;;;23.73;;
3633;SDS011;1833;42.718;23.270;2022-09-09T13:11:48;26.93;;;24.63;;
3633;SDS011;1833;42.718;23.270;2022-09-09T13:14:17;27.23;;;25.02;;
3633;SDS011;1833;42.718;23.270;2022-09-09T13:16:54;26.85;;;24.38;;
3633;SDS011;1833;42.718;23.270;2022-09-09T13:19:22;25.50;;;23.47;;
3633;SDS011;1833;42.718;23.270;2022-09-09T13:21:52;26.50;;;24.20;;
3633;SDS011;1833;42.718;23.270;2022-09-09T13:24:23;26.70;;;24.50;;
3633;SDS011;1833;42.718;23.270;2022-09-09T13:26:55;24.80;;;22.80;;
3633;SDS011;1833;42.718;23.270;2022-09-09T13:29:23;25.83;;;23.63;;
3633;SDS011;1833;42.718;23.270;2022-09-09T13:31:50;26.00;;;23.70;;
3633;SDS011;1833;42.718;23.270;2022-09-09T13:34:26;25.33;;;23.33;;
3633;SDS011;1833;42.718;23.270;2022-09-09T13:36:54;25.47;;;23.50;;
3633;SDS011;1833;42.718;23.270;2022-09-09T13:39:23;26.57;;;24.10;;
3633;SDS011;1833;42.718;23.270;2022-09-09T13:41:50;25.47;;;23.60;;
3633;SDS011;1833;42.718;23.270;2022-09-09T13:44:21;26.53;;;24.10;;
3633;SDS011;1833;42.718;23.270;2022-09-09T13:46:59;26.33;;;24.33;;
3633;SDS011;1833;42.718;23.270;2022-09-09T13:49:27;25.53;;;23.63;;
3633;SDS011;1833;42.718;23.270;2022-09-09T13:52:03;26.37;;;24.27;;
3633;SDS011;1833;42.718;23.270;2022-09-09T13:54:32;25.73;;;23.57;;
3633;SDS011;1833;42.718;23.270;2022-09-09T13:57:00;26.13;;;23.93;;
3633;SDS011;1833;42.718;23.270;2022-09-09T13:59:29;26.70;;;24.30;;
3633;SDS011;1833;42.718;23.270;2022-09-09T14:01:56;26.53;;;24.30;;
3633;SDS011;1833;42.718;23.270;2022-09-09T14:04:24;30.63;;;26.20;;
3633;SDS011;1833;42.718;23.270;2022-09-09T14:06:51;26.87;;;24.40;;
3633;SDS011;1833;42.718;23.270;2022-09-09T14:09:18;26.03;;;24.00;;
3633;SDS011;1833;42.718;23.270;2022-09-09T14:11:46;26.10;;;24.07;;
3633;SDS011;1833;42.718;23.270;2022-09-09T14:14:13;24.93;;;22.93;;
3633;SDS011;1833;42.718;23.270;2022-09-09T14:16:42;24.90;;;22.90;;
3633;SDS011;1833;42.718;23.270;2022-09-09T14:19:09;25.37;;;23.27;;
3633;SDS011;1833;42.718;23.270;2022-09-09T14:21:37;25.40;;;23.47;;
3633;SDS011;1833;42.718;23.270;2022-09-09T14:24:04;25.33;;;22.93;;
3633;SDS011;1833;42.718;23.270;2022-09-09T14:26:32;24.67;;;22.67;;
3633;SDS011;1833;42.718;23.270;2022-09-09T14:28:59;25.07;;;22.97;;
3633;SDS011;1833;42.718;23.270;2022-09-09T14:31:26;25.10;;;23.20;;
3633;SDS011;1833;42.718;23.270;2022-09-09T14:33:55;26.17;;;23.30;;
3633;SDS011;1833;42.718;23.270;2022-09-09T14:36:23;26.37;;;23.20;;
3633;SDS011;1833;42.718;23.270;2022-09-09T14:38:51;25.47;;;22.93;;
3633;SDS011;1833;42.718;23.270;2022-09-09T14:41:19;29.60;;;23.60;;
3633;SDS011;1833;42.718;23.270;2022-09-09T14:43:47;25.47;;;23.37;;
3633;SDS011;1833;42.718;23.270;2022-09-09T14:46:15;24.53;;;22.53;;
3633;SDS011;1833;42.718;23.270;2022-09-09T14:48:43;25.00;;;22.77;;
3633;SDS011;1833;42.718;23.270;2022-09-09T14:51:14;30.60;;;24.70;;